createdAt,value
2019-02-16T00:01:13.654Z,60.00
2019-02-16T00:04:18.064Z,60.00
2019-02-16T00:07:23.463Z,60.00
2019-02-16T00:10:27.891Z,60.00
2019-02-16T00:13:32.258Z,60.00
2019-02-16T00:16:36.658Z,60.00
2019-02-16T00:19:41.055Z,60.00
2019-02-16T00:22:45.446Z,60.00
2019-02-16T00:25:49.844Z,60.00
2019-02-16T00:28:43.158Z,60.00
2019-02-16T00:31:47.569Z,60.00
2019-02-16T00:34:51.976Z,60.00
2019-02-16T00:37:56.352Z,60.00
2019-02-16T00:41:00.768Z,63.00
2019-02-16T00:44:05.153Z,62.00
2019-02-16T00:47:09.560Z,62.00
2019-02-16T00:50:13.960Z,62.00
2019-02-16T00:53:18.349Z,63.00
2019-02-16T00:56:22.759Z,62.00
2019-02-16T00:59:28.028Z,62.00
2019-02-16T01:02:31.548Z,62.00
2019-02-16T01:05:35.965Z,59.00
2019-02-16T01:08:29.278Z,60.00
2019-02-16T01:11:33.669Z,60.00
2019-02-16T01:14:38.048Z,60.00
2019-02-16T01:17:42.455Z,60.00
2019-02-16T01:20:46.853Z,59.00
2019-02-16T01:23:52.277Z,59.00
2019-02-16T01:26:56.671Z,59.00
2019-02-16T01:30:01.051Z,59.00
2019-02-16T01:33:05.460Z,59.00
2019-02-16T01:36:09.859Z,59.00
2019-02-16T01:39:14.240Z,59.00
2019-02-16T01:42:18.647Z,59.00
2019-02-16T01:45:23.018Z,59.00
2019-02-16T01:48:27.616Z,59.00
2019-02-16T01:51:32.357Z,59.00
2019-02-16T01:54:36.413Z,59.00
2019-02-16T01:57:40.821Z,59.00
2019-02-16T02:00:45.193Z,59.00
2019-02-16T02:03:49.600Z,59.00
2019-02-16T02:06:54.010Z,59.00
2019-02-16T02:09:58.383Z,59.00
2019-02-16T02:13:02.783Z,59.00
2019-02-16T02:16:07.165Z,59.00
2019-02-16T02:19:11.564Z,59.00
2019-02-16T02:22:15.964Z,59.00
2019-02-16T02:25:20.346Z,58.00
2019-02-16T02:28:13.677Z,58.00
2019-02-16T02:31:18.065Z,58.00
2019-02-16T02:34:22.454Z,58.00
2019-02-16T02:37:26.874Z,58.00
2019-02-16T02:40:31.250Z,58.00
2019-02-16T02:43:35.649Z,58.00
2019-02-16T02:46:40.025Z,58.00
2019-02-16T02:49:44.434Z,59.00
2019-02-16T02:52:48.825Z,59.00
2019-02-16T02:55:53.207Z,58.00
2019-02-16T02:58:46.533Z,59.00
2019-02-16T03:01:39.850Z,59.00
2019-02-16T03:04:44.247Z,59.00
2019-02-16T03:07:48.621Z,59.00
2019-02-16T03:10:53.042Z,59.00
2019-02-16T03:13:57.427Z,59.00
2019-02-16T03:17:01.809Z,59.00
2019-02-16T03:20:06.207Z,58.00
2019-02-16T03:23:10.631Z,60.00
2019-02-16T03:26:14.998Z,62.00
2019-02-16T03:29:19.411Z,62.00
2019-02-16T03:32:23.801Z,62.00
2019-02-16T03:35:28.205Z,62.00
2019-02-16T03:38:21.522Z,62.00
2019-02-16T03:41:25.927Z,62.00
2019-02-16T03:44:30.334Z,61.00
2019-02-16T03:47:34.737Z,62.00
2019-02-16T03:50:39.134Z,61.00
2019-02-16T03:53:43.523Z,61.00
2019-02-16T03:56:47.937Z,62.00
2019-02-16T03:59:52.343Z,61.00
2019-02-16T04:02:56.744Z,61.00
2019-02-16T04:06:01.132Z,59.00
2019-02-16T04:08:54.427Z,60.00
2019-02-16T04:11:58.831Z,59.00
2019-02-16T04:15:03.204Z,59.00
2019-02-16T04:18:07.599Z,59.00
2019-02-16T04:21:12.002Z,59.00
2019-02-16T04:24:16.381Z,60.00
2019-02-16T04:27:21.792Z,59.00
2019-02-16T04:30:27.208Z,59.00
2019-02-16T04:33:31.593Z,58.00
2019-02-16T04:36:35.991Z,59.00
2019-02-16T04:39:40.371Z,59.00
2019-02-16T04:42:44.769Z,59.00
2019-02-16T04:45:49.170Z,59.00
2019-02-16T04:48:42.481Z,59.00
2019-02-16T04:51:46.880Z,59.00
2019-02-16T04:54:51.261Z,59.00
2019-02-16T04:57:55.669Z,60.00
2019-02-16T05:01:00.081Z,59.00
2019-02-16T05:04:04.448Z,58.00
2019-02-16T05:07:08.843Z,59.00
2019-02-16T05:10:13.224Z,59.00
2019-02-16T05:13:17.621Z,59.00
2019-02-16T05:16:22.021Z,58.00
2019-02-16T05:19:26.397Z,59.00
2019-02-16T05:22:30.796Z,58.00
2019-02-16T05:25:35.172Z,59.00
2019-02-16T05:28:28.521Z,64.00
2019-02-16T05:31:32.976Z,62.00
2019-02-16T05:34:37.330Z,62.00
2019-02-16T05:37:41.728Z,62.00
2019-02-16T05:40:46.118Z,62.00
2019-02-16T05:43:50.522Z,62.00
2019-02-16T05:46:54.944Z,62.00
2019-02-16T05:49:59.318Z,62.00
2019-02-16T05:53:03.730Z,62.00
2019-02-16T05:56:08.124Z,62.00
2019-02-16T05:59:12.540Z,63.00
2019-02-16T06:02:16.941Z,63.00
2019-02-16T06:05:21.333Z,62.00
2019-02-16T06:08:14.675Z,61.00
2019-02-16T06:11:19.047Z,61.00
2019-02-16T06:14:23.465Z,61.00
2019-02-16T06:17:27.869Z,61.00
2019-02-16T06:20:33.257Z,59.00
2019-02-16T06:23:37.651Z,60.00
2019-02-16T06:26:42.022Z,60.00
2019-02-16T06:29:46.428Z,60.00
2019-02-16T06:32:50.824Z,60.00
2019-02-16T06:35:56.214Z,60.00
2019-02-16T06:38:50.559Z,60.00
2019-02-16T06:41:54.932Z,60.00
2019-02-16T06:44:59.338Z,60.00
2019-02-16T06:48:03.725Z,60.00
2019-02-16T06:51:08.124Z,60.00
2019-02-16T06:54:12.529Z,60.00
2019-02-16T06:57:16.910Z,60.00
2019-02-16T07:00:21.313Z,60.00
2019-02-16T07:03:25.700Z,60.00
2019-02-16T07:06:30.138Z,60.00
2019-02-16T07:09:34.506Z,60.00
2019-02-16T07:12:38.881Z,60.00
2019-02-16T07:15:43.275Z,60.00
2019-02-16T07:18:36.578Z,60.00
2019-02-16T07:21:40.980Z,59.00
2019-02-16T07:24:45.466Z,62.00
2019-02-16T07:27:49.853Z,60.00
2019-02-16T07:30:54.262Z,60.00
2019-02-16T07:33:58.661Z,59.00
2019-02-16T07:37:03.071Z,62.00
2019-02-16T07:40:07.491Z,60.00
2019-02-16T07:43:11.881Z,60.00
2019-02-16T07:46:16.354Z,60.00
2019-02-16T07:49:20.737Z,60.00
2019-02-16T07:52:25.147Z,63.00
2019-02-16T07:55:29.562Z,59.00
2019-02-16T07:58:22.884Z,58.00
2019-02-16T08:01:27.299Z,60.00
2019-02-16T08:04:31.763Z,59.00
2019-02-16T08:07:36.183Z,58.00
2019-02-16T08:10:40.607Z,59.00
2019-02-16T08:13:45.016Z,60.00
2019-02-16T08:16:49.444Z,61.00
2019-02-16T08:19:53.853Z,60.00
2019-02-16T08:22:58.292Z,59.00
2019-02-16T08:26:02.739Z,61.00
2019-02-16T08:28:56.074Z,58.00
2019-02-16T08:32:00.518Z,59.00
2019-02-16T08:35:04.935Z,61.00
2019-02-16T08:38:09.376Z,60.00
2019-02-16T08:41:13.818Z,63.00
2019-02-16T08:44:18.238Z,60.00
2019-02-16T08:47:22.680Z,60.00
2019-02-16T08:50:27.103Z,64.00
2019-02-16T08:53:31.545Z,62.00
2019-02-16T08:56:35.991Z,61.00
2019-02-16T08:59:40.417Z,64.00
2019-02-16T09:02:44.870Z,61.00
2019-02-16T09:05:49.297Z,60.00
2019-02-16T09:08:42.671Z,61.00
2019-02-16T09:11:47.121Z,61.00
2019-02-16T09:14:51.539Z,61.00
2019-02-16T09:17:56.995Z,60.00
2019-02-16T09:21:02.427Z,60.00
2019-02-16T09:24:06.869Z,61.00
2019-02-16T09:27:11.286Z,60.00
2019-02-16T09:30:15.729Z,61.00
2019-02-16T09:33:20.176Z,60.00
2019-02-16T09:36:24.598Z,60.00
2019-02-16T09:39:29.046Z,60.00
2019-02-16T09:42:33.479Z,61.00
2019-02-16T09:45:37.926Z,60.00
2019-02-16T09:48:31.298Z,60.00
2019-02-16T09:51:35.721Z,59.00
2019-02-16T09:54:40.171Z,60.00
2019-02-16T09:57:44.597Z,60.00
2019-02-16T10:00:49.050Z,60.00
2019-02-16T10:03:53.506Z,62.00
2019-02-16T10:06:57.938Z,62.00
2019-02-16T10:10:02.393Z,60.00
2019-02-16T10:13:06.828Z,65.00
2019-02-16T10:16:11.288Z,67.00
2019-02-16T10:19:15.750Z,62.00
2019-02-16T10:22:20.184Z,62.00
2019-02-16T10:25:24.638Z,63.00
2019-02-16T10:28:18.004Z,61.00
2019-02-16T10:31:22.460Z,65.00
2019-02-16T10:34:26.918Z,65.00
2019-02-16T10:37:31.358Z,63.00
2019-02-16T10:40:35.812Z,65.00
2019-02-16T10:43:40.252Z,68.00
2019-02-16T10:46:44.709Z,66.00
2019-02-16T10:49:49.170Z,65.00
2019-02-16T10:52:53.615Z,62.00
2019-02-16T10:55:58.060Z,61.00
2019-02-16T10:58:51.431Z,62.00
2019-02-16T11:01:55.875Z,67.00
2019-02-16T11:05:00.335Z,68.00
2019-02-16T11:08:04.772Z,61.00
2019-02-16T11:11:09.235Z,61.00
2019-02-16T11:14:13.668Z,63.00
2019-02-16T11:17:18.127Z,64.00
2019-02-16T11:20:22.588Z,60.00
2019-02-16T11:23:27.026Z,62.00
2019-02-16T11:26:31.486Z,60.00
2019-02-16T11:29:35.931Z,60.00
2019-02-16T11:32:40.399Z,65.00
2019-02-16T11:35:44.866Z,60.00
2019-02-16T11:38:38.239Z,61.00
2019-02-16T11:41:42.703Z,61.00
2019-02-16T11:44:47.190Z,67.00
2019-02-16T11:47:51.737Z,64.00
2019-02-16T11:50:56.253Z,63.00
2019-02-16T11:54:00.700Z,67.00
2019-02-16T11:57:05.240Z,65.00
2019-02-16T12:00:09.683Z,65.00
2019-02-16T12:03:14.152Z,64.00
2019-02-16T12:06:18.667Z,66.00
2019-02-16T12:09:23.123Z,63.00
2019-02-16T12:12:27.713Z,67.00
2019-02-16T12:15:32.157Z,71.00
2019-02-16T12:18:25.548Z,67.00
2019-02-16T12:21:30.011Z,65.00
2019-02-16T12:24:34.455Z,70.00
2019-02-16T12:27:38.924Z,66.00
2019-02-16T12:30:43.364Z,66.00
2019-02-16T12:33:47.828Z,65.00
2019-02-16T12:36:52.290Z,64.00
2019-02-16T12:39:57.756Z,64.00
2019-02-16T12:43:02.214Z,63.00
2019-02-16T12:46:06.651Z,65.00
2019-02-16T12:49:11.110Z,64.00
2019-02-16T12:52:15.571Z,65.00
2019-02-16T12:55:20.015Z,65.00
2019-02-16T12:58:13.406Z,64.00
2019-02-16T13:01:17.843Z,64.00
2019-02-16T13:04:22.303Z,64.00
2019-02-16T13:07:26.750Z,64.00
2019-02-16T13:10:31.220Z,65.00
2019-02-16T13:13:35.788Z,65.00
2019-02-16T13:16:40.238Z,66.00
2019-02-16T13:19:44.703Z,65.00
2019-02-16T13:22:49.221Z,68.00
2019-02-16T13:25:53.691Z,63.00
2019-02-16T13:28:47.086Z,63.00
2019-02-16T13:31:51.601Z,66.00
2019-02-16T13:34:56.217Z,62.00
2019-02-16T13:38:00.678Z,62.00
2019-02-16T13:41:05.215Z,70.00
2019-02-16T13:44:09.782Z,65.00
2019-02-16T13:47:14.247Z,64.00
2019-02-16T13:50:20.246Z,65.00
2019-02-16T13:53:23.208Z,64.00
2019-02-16T13:56:27.714Z,69.00
2019-02-16T13:59:32.176Z,65.00
2019-02-16T14:02:36.627Z,65.00
2019-02-16T14:05:41.088Z,67.00
2019-02-16T14:08:34.506Z,66.00
2019-02-16T14:11:39.002Z,61.00
2019-02-16T14:14:43.585Z,58.00
2019-02-16T14:17:48.094Z,59.00
2019-02-16T14:20:52.704Z,59.00
2019-02-16T14:23:57.175Z,60.00
2019-02-16T14:27:01.633Z,60.00
2019-02-16T14:30:06.193Z,64.00
2019-02-16T14:33:10.625Z,61.00
2019-02-16T14:36:15.078Z,62.00
2019-02-16T14:39:19.513Z,59.00
2019-02-16T14:42:23.968Z,61.00
2019-02-16T14:45:28.430Z,60.00
2019-02-16T14:48:21.790Z,60.00
2019-02-16T14:51:26.246Z,60.00
2019-02-16T14:54:30.680Z,59.00
2019-02-16T14:57:35.128Z,59.00
2019-02-16T15:00:39.582Z,59.00
2019-02-16T15:03:44.013Z,59.00
2019-02-16T15:06:48.464Z,60.00
2019-02-16T15:09:52.895Z,63.00
2019-02-16T15:12:57.352Z,64.00
2019-02-16T15:16:01.812Z,63.00
2019-02-16T15:18:56.203Z,63.00
2019-02-16T15:22:00.657Z,66.00
2019-02-16T15:25:05.090Z,66.00
2019-02-16T15:28:09.538Z,67.00
2019-02-16T15:31:13.990Z,64.00
2019-02-16T15:34:18.423Z,62.00
2019-02-16T15:37:22.865Z,63.00
2019-02-16T15:40:27.299Z,61.00
2019-02-16T15:43:31.745Z,64.00
2019-02-16T15:46:36.184Z,64.00
2019-02-16T15:49:41.154Z,62.00
2019-02-16T15:52:45.049Z,67.00
2019-02-16T15:55:49.470Z,62.00
2019-02-16T15:58:42.843Z,63.00
2019-02-16T16:01:48.667Z,62.00
2019-02-16T16:04:51.699Z,67.00
2019-02-16T16:07:56.133Z,61.00
2019-02-16T16:11:00.552Z,60.00
2019-02-16T16:14:06.522Z,60.00
2019-02-16T16:17:09.411Z,59.00
2019-02-16T16:20:13.820Z,60.00
2019-02-16T16:23:18.246Z,58.00
2019-02-16T16:26:22.656Z,62.00
2019-02-16T16:29:27.090Z,62.00
2019-02-16T16:32:31.509Z,61.00
2019-02-16T16:35:35.909Z,62.00
2019-02-16T16:38:29.258Z,61.00
2019-02-16T16:41:33.661Z,62.00
2019-02-16T16:44:38.093Z,60.00
2019-02-16T16:47:42.525Z,59.00
2019-02-16T16:50:46.929Z,60.00
2019-02-16T16:53:51.444Z,60.00
2019-02-16T16:56:55.770Z,63.00
2019-02-16T17:00:00.342Z,60.00
2019-02-16T17:03:04.610Z,63.00
2019-02-16T17:06:09.005Z,62.00
2019-02-16T17:09:13.431Z,59.00
2019-02-16T17:12:17.824Z,60.00
2019-02-16T17:15:22.239Z,59.00
2019-02-16T17:18:15.559Z,60.00
2019-02-16T17:21:19.974Z,60.00
2019-02-16T17:24:24.389Z,60.00
2019-02-16T17:27:28.787Z,59.00
2019-02-16T17:30:34.923Z,59.00
2019-02-16T17:33:37.726Z,60.00
2019-02-16T17:36:42.377Z,59.00
2019-02-16T17:39:46.800Z,59.00
2019-02-16T17:42:51.203Z,60.00
2019-02-16T17:45:55.610Z,59.00
2019-02-16T17:48:48.980Z,59.00
2019-02-16T17:51:53.399Z,59.00
2019-02-16T17:54:57.914Z,59.00
2019-02-16T17:58:02.342Z,59.00
2019-02-16T18:01:06.760Z,59.00
2019-02-16T18:04:11.189Z,59.00
2019-02-16T18:07:15.604Z,60.00
2019-02-16T18:10:20.017Z,60.00
2019-02-16T18:13:24.484Z,60.00
2019-02-16T18:16:28.887Z,60.00
2019-02-16T18:19:33.389Z,60.00
2019-02-16T18:22:37.797Z,60.00
2019-02-16T18:25:42.262Z,59.00
2019-02-16T18:28:35.609Z,59.00
2019-02-16T18:31:40.027Z,60.00
2019-02-16T18:34:44.488Z,60.00
2019-02-16T18:37:48.912Z,60.00
2019-02-16T18:40:53.320Z,60.00
2019-02-16T18:43:59.772Z,60.00
2019-02-16T18:47:02.135Z,60.00
2019-02-16T18:50:06.535Z,59.00
2019-02-16T18:53:11.070Z,59.00
2019-02-16T18:56:15.589Z,59.00
2019-02-16T18:59:20.012Z,59.00
2019-02-16T19:02:24.590Z,60.00
2019-02-16T19:05:29.049Z,60.00
2019-02-16T19:08:22.376Z,59.00
2019-02-16T19:11:26.769Z,60.00
2019-02-16T19:14:31.186Z,58.00
2019-02-16T19:17:35.686Z,59.00
2019-02-16T19:20:40.098Z,60.00
2019-02-16T19:23:44.506Z,60.00
2019-02-16T19:26:49.013Z,59.00
2019-02-16T19:29:53.446Z,59.00
2019-02-16T19:32:57.913Z,59.00
2019-02-16T19:36:02.402Z,59.00
2019-02-16T19:38:55.815Z,59.00
2019-02-16T19:42:00.220Z,59.00
2019-02-16T19:45:04.689Z,59.00
2019-02-16T19:48:09.032Z,59.00
2019-02-16T19:51:13.419Z,59.00
2019-02-16T19:54:17.821Z,58.00
2019-02-16T19:57:26.899Z,59.00
2019-02-16T20:00:26.618Z,58.00
2019-02-16T20:03:31.027Z,59.00
2019-02-16T20:06:35.416Z,60.00
2019-02-16T20:09:39.830Z,65.00
2019-02-16T20:12:44.250Z,60.00
2019-02-16T20:15:48.640Z,60.00
2019-02-16T20:18:41.978Z,60.00
2019-02-16T20:21:46.369Z,60.00
2019-02-16T20:24:50.782Z,60.00
2019-02-16T20:27:55.199Z,60.00
2019-02-16T20:30:59.588Z,60.00
2019-02-16T20:34:03.995Z,60.00
2019-02-16T20:37:08.384Z,60.00
2019-02-16T20:40:12.797Z,60.00
2019-02-16T20:43:17.209Z,60.00
2019-02-16T20:46:21.602Z,60.00
2019-02-16T20:49:26.020Z,60.00
2019-02-16T20:52:30.418Z,61.00
2019-02-16T20:55:34.834Z,60.00
2019-02-16T20:58:28.172Z,60.00
2019-02-16T21:01:32.558Z,60.00
2019-02-16T21:04:36.971Z,60.00
2019-02-16T21:07:41.355Z,60.00
2019-02-16T21:10:45.756Z,59.00
2019-02-16T21:13:50.166Z,59.00
2019-02-16T21:16:54.556Z,59.00
2019-02-16T21:19:58.962Z,60.00
2019-02-16T21:23:03.353Z,59.00
2019-02-16T21:26:07.763Z,59.00
2019-02-16T21:29:12.832Z,59.00
2019-02-16T21:32:16.556Z,59.00
2019-02-16T21:35:20.960Z,59.00
2019-02-16T21:38:14.277Z,59.00
2019-02-16T21:41:18.688Z,59.00
2019-02-16T21:44:23.100Z,59.00
2019-02-16T21:47:27.495Z,59.00
2019-02-16T21:50:31.891Z,59.00
2019-02-16T21:53:36.287Z,59.00
2019-02-16T21:56:40.681Z,59.00
2019-02-16T21:59:45.090Z,58.00
2019-02-16T22:02:49.485Z,59.00
2019-02-16T22:05:53.876Z,59.00
2019-02-16T22:08:47.196Z,59.00
2019-02-16T22:11:51.600Z,59.00
2019-02-16T22:14:55.986Z,59.00
2019-02-16T22:18:00.396Z,58.00
2019-02-16T22:21:04.861Z,58.00
2019-02-16T22:24:09.187Z,58.00
2019-02-16T22:27:13.615Z,58.00
2019-02-16T22:30:17.984Z,58.00
2019-02-16T22:33:22.390Z,58.00
2019-02-16T22:36:26.804Z,58.00
2019-02-16T22:39:31.189Z,58.00
2019-02-16T22:42:35.611Z,58.00
2019-02-16T22:45:39.977Z,59.00
2019-02-16T22:48:33.308Z,59.00
2019-02-16T22:51:37.719Z,58.00
2019-02-16T22:54:42.102Z,58.00
2019-02-16T22:57:46.510Z,58.00
2019-02-16T23:00:50.902Z,58.00
2019-02-16T23:03:55.311Z,58.00
2019-02-16T23:06:59.718Z,59.00
2019-02-16T23:10:04.106Z,59.00
2019-02-16T23:13:08.516Z,59.00
2019-02-16T23:16:12.910Z,58.00
2019-02-16T23:19:17.315Z,58.00
2019-02-16T23:22:21.724Z,58.00
2019-02-16T23:25:26.107Z,58.00
2019-02-16T23:28:19.440Z,58.00
2019-02-16T23:31:23.822Z,59.00
2019-02-16T23:34:28.229Z,59.00
2019-02-16T23:37:32.639Z,59.00
2019-02-16T23:40:37.020Z,59.00
2019-02-16T23:43:41.430Z,59.00
2019-02-16T23:46:45.810Z,59.00
2019-02-16T23:49:50.217Z,59.00
2019-02-16T23:52:54.621Z,59.00
2019-02-16T23:55:59.008Z,60.00
2019-02-16T23:58:52.355Z,60.00
